Time;durP1;ratioP1;P1;durP2;ratioP2;P2;SDS_P1;SDS_P2;PMS_P1;PMS_P2;Temp;Humidity;BMP_temperature;BMP_pressure;BME280_temperature;BME280_humidity;BME280_pressure;Samples;Min_cycle;Max_cycle;Signal;HPM_P1;HPM_P2
2023/07/05 00:01:51;;;;;;;;;;;;;;;27.24;59.79;101193.69;5061807;28;19956;-80
2023/07/05 00:04:16;;;;;;;;;;;;;;;27.25;59.96;101198.16;5056604;28;20305;-79
2023/07/05 00:06:42;;;;;;;;;;;;;;;27.23;59.98;101194.59;5084941;28;20371;-80
2023/07/05 00:09:07;;;;;;;;;;;;;;;27.23;60.04;101194.59;5055653;28;19928;-79
2023/07/05 00:11:32;;;;;;;;;;;;;;;27.25;59.85;101199.06;5051213;28;19917;-79
2023/07/05 00:13:58;;;;;;;;;;;;;;;27.23;59.73;101198.16;5051411;28;20405;-79
2023/07/05 00:16:23;;;;;;;;;;;;;;;27.24;59.95;101196.38;5062531;28;20394;-80
2023/07/05 00:18:49;;;;;;;;;;;;;;;27.21;60.04;101199.94;5056145;28;20019;-80
2023/07/05 00:21:14;;;;;;;;;;;;;;;27.23;60.01;101205.34;5052282;28;19956;-80
2023/07/05 00:23:40;;;;;;;;;;;;;;;27.21;59.85;101208.88;5051414;28;19974;-80
2023/07/05 00:26:06;;;;;;;;;;;;;;;27.21;59.90;101203.50;5055033;28;20074;-80
2023/07/05 00:28:34;;;;;;;;;;;;;;;27.23;59.89;101210.69;5088325;28;19967;-80
2023/07/05 00:31:00;;;;;;;;;;;;;;;27.23;59.74;101202.66;5052702;28;19927;-80
2023/07/05 00:33:25;;;;;;;;;;;;;;;27.20;60.04;101191.00;5059463;28;19921;-80
2023/07/05 00:35:52;;;;;;;;;;;;;;;27.21;59.78;101194.56;5053408;28;19920;-81
2023/07/05 00:38:18;;;;;;;;;;;;;;;27.21;60.03;101190.09;5057492;28;19924;-82
2023/07/05 00:40:46;;;;;;;;;;;;;;;27.19;59.65;101197.25;5050969;28;20309;-81
2023/07/05 00:43:12;;;;;;;;;;;;;;;27.20;60.06;101195.50;5050090;28;19923;-79
2023/07/05 00:46:04;;;;;;;;;;;;;;;27.20;59.70;101198.19;5090711;28;20401;-79
2023/07/05 00:48:29;;;;;;;;;;;;;;;27.19;59.91;101196.38;5063587;28;19975;-81
2023/07/05 00:50:55;;;;;;;;;;;;;;;27.17;59.74;101195.50;5055959;28;19920;-79
2023/07/05 00:53:21;;;;;;;;;;;;;;;27.18;59.77;101194.63;5083703;28;19916;-79
2023/07/05 00:55:48;;;;;;;;;;;;;;;27.17;59.67;101188.34;5056468;28;19929;-81
2023/07/05 00:58:13;;;;;;;;;;;;;;;27.16;59.88;101186.56;5061986;28;20386;-80
2023/07/05 01:00:38;;;;;;;;;;;;;;;27.17;59.65;101190.13;5063235;28;20018;-80
2023/07/05 01:03:05;;;;;;;;;;;;;;;27.16;59.82;101186.56;5055547;28;20309;-79
2023/07/05 01:05:30;;;;;;;;;;;;;;;27.15;59.95;101182.09;5055645;28;19924;-81
2023/07/05 01:07:55;;;;;;;;;;;;;;;27.13;59.87;101183.91;5054307;28;19917;-79
2023/07/05 01:10:23;;;;;;;;;;;;;;;27.14;59.72;101188.38;5059776;28;20415;-81
2023/07/05 01:12:51;;;;;;;;;;;;;;;27.14;59.62;101184.81;5070649;28;19927;-81
2023/07/05 01:15:18;;;;;;;;;;;;;;;27.12;59.67;101190.19;5094574;28;19917;-81
2023/07/05 01:17:56;;;;;;;;;;;;;;;27.13;59.89;101188.38;5098509;28;19920;-81
2023/07/05 01:20:21;;;;;;;;;;;;;;;27.12;59.72;101183.94;5054096;28;20424;-80
2023/07/05 01:22:47;;;;;;;;;;;;;;;27.12;59.81;101175.91;5070992;28;19920;-80
2023/07/05 01:25:27;;;;;;;;;;;;;;;27.11;59.72;101179.47;5061808;28;19932;-80
2023/07/05 01:28:02;;;;;;;;;;;;;;;27.10;59.68;101181.25;5056000;28;20394;-80
2023/07/05 01:30:35;;;;;;;;;;;;;;;27.10;59.53;101185.75;5077453;28;19927;-81
2023/07/05 01:33:09;;;;;;;;;;;;;;;27.10;59.59;101183.94;5053293;28;19921;-81
2023/07/05 01:35:39;;;;;;;;;;;;;;;27.08;59.68;101174.13;5058014;28;19920;-80
2023/07/05 01:38:05;;;;;;;;;;;;;;;27.08;59.88;101176.81;5087752;28;19927;-80
2023/07/05 01:40:30;;;;;;;;;;;;;;;27.09;59.76;101170.53;5053590;28;20008;-80
2023/07/05 01:42:56;;;;;;;;;;;;;;;27.07;59.73;101165.19;5057016;28;19921;-81
2023/07/05 01:45:24;;;;;;;;;;;;;;;27.06;59.95;101173.25;5087003;28;19926;-81
2023/07/05 01:48:19;;;;;;;;;;;;;;;27.08;59.83;101174.13;5086438;28;19932;-81
2023/07/05 01:50:52;;;;;;;;;;;;;;;27.06;59.72;101176.81;5060831;28;20394;-82
2023/07/05 01:53:23;;;;;;;;;;;;;;;27.06;59.97;101167.91;5089457;28;19944;-81
2023/07/05 01:55:48;;;;;;;;;;;;;;;27.05;59.73;101174.16;5085912;28;19964;-81
2023/07/05 01:58:17;;;;;;;;;;;;;;;27.03;59.76;101171.50;5057180;28;19964;-81
2023/07/05 02:00:42;;;;;;;;;;;;;;;27.03;59.87;101171.50;5065611;28;19999;-81
2023/07/05 02:03:09;;;;;;;;;;;;;;;27.03;59.80;101176.84;5071979;28;20024;-80
2023/07/05 02:05:34;;;;;;;;;;;;;;;27.01;59.82;101176.84;5053868;28;19916;-80
2023/07/05 02:08:00;;;;;;;;;;;;;;;27.01;59.79;101176.84;5055386;28;19923;-81
2023/07/05 02:10:26;;;;;;;;;;;;;;;26.99;59.86;101170.63;5055635;28;19916;-83
2023/07/05 02:12:52;;;;;;;;;;;;;;;27.01;59.70;101175.97;5053901;28;19917;-82
2023/07/05 02:15:18;;;;;;;;;;;;;;;26.99;59.82;101169.75;5056538;28;19920;-81
2023/07/05 02:17:43;;;;;;;;;;;;;;;26.99;59.70;101184.03;5091808;28;19920;-82
2023/07/05 02:20:09;;;;;;;;;;;;;;;26.97;59.50;101176.91;5061672;28;19940;-82
2023/07/05 02:22:34;;;;;;;;;;;;;;;26.96;59.60;101178.66;5065424;28;20395;-80
2023/07/05 02:25:00;;;;;;;;;;;;;;;26.97;59.51;101179.59;5053353;28;19916;-80
2023/07/05 02:27:26;;;;;;;;;;;;;;;26.96;59.60;101175.09;5084984;28;19921;-80
2023/07/05 02:29:52;;;;;;;;;;;;;;;26.95;59.58;101176.91;5054431;28;19925;-80
2023/07/05 02:32:17;;;;;;;;;;;;;;;26.97;59.78;101185.81;5070926;28;19946;-81
2023/07/05 02:34:43;;;;;;;;;;;;;;;26.96;59.90;101177.78;5058752;28;20412;-81
2023/07/05 02:37:08;;;;;;;;;;;;;;;26.95;59.70;101184.94;5062633;28;19921;-82
2023/07/05 02:39:34;;;;;;;;;;;;;;;26.94;59.58;101182.25;5054075;28;19928;-81
2023/07/05 02:41:59;;;;;;;;;;;;;;;26.94;59.72;101183.16;5052923;28;19921;-81
2023/07/05 02:44:25;;;;;;;;;;;;;;;26.94;59.76;101182.25;5058999;28;19920;-81
2023/07/05 02:46:50;;;;;;;;;;;;;;;26.94;59.79;101179.59;5061773;28;20486;-81
2023/07/05 02:49:16;;;;;;;;;;;;;;;26.92;59.90;101181.38;5051821;28;20346;-80
2023/07/05 02:51:41;;;;;;;;;;;;;;;26.92;59.38;101184.06;5056935;28;20356;-81
2023/07/05 02:54:07;;;;;;;;;;;;;;;26.91;59.71;101191.22;5055941;28;19920;-81
2023/07/05 02:56:33;;;;;;;;;;;;;;;26.90;59.52;101191.22;5064610;28;19963;-81
2023/07/05 02:58:58;;;;;;;;;;;;;;;26.89;59.46;101193.03;5088419;28;19964;-81
2023/07/05 03:01:24;;;;;;;;;;;;;;;26.90;59.78;101196.59;5068353;28;20309;-81
2023/07/05 03:03:49;;;;;;;;;;;;;;;26.89;59.46;101197.50;5068089;28;20029;-82
2023/07/05 03:06:15;;;;;;;;;;;;;;;26.87;59.85;101202.88;5054050;28;19923;-81
2023/07/05 03:08:40;;;;;;;;;;;;;;;26.88;59.76;101199.31;5051091;28;20309;-80
2023/07/05 03:11:06;;;;;;;;;;;;;;;26.86;59.62;101193.06;5066433;28;20413;-80
2023/07/05 03:13:32;;;;;;;;;;;;;;;26.87;59.47;101186.78;5056830;28;20456;-80
2023/07/05 03:15:57;;;;;;;;;;;;;;;26.88;59.41;101195.69;5065600;28;20372;-81
2023/07/05 03:18:23;;;;;;;;;;;;;;;26.86;59.83;101193.06;5053297;28;20363;-80
2023/07/05 03:20:49;;;;;;;;;;;;;;;26.87;59.60;101199.31;5061524;28;19931;-82
2023/07/05 03:23:14;;;;;;;;;;;;;;;26.86;59.65;101197.50;5064762;28;19975;-81
2023/07/05 03:25:40;;;;;;;;;;;;;;;26.83;59.56;101198.41;5061410;28;19928;-82
2023/07/05 03:28:06;;;;;;;;;;;;;;;26.83;59.53;101205.56;5088396;28;19921;-81
2023/07/05 03:30:31;;;;;;;;;;;;;;;26.83;59.56;101198.41;5053287;28;19928;-81
2023/07/05 03:32:57;;;;;;;;;;;;;;;26.83;59.62;101205.56;5059978;28;20106;-80
2023/07/05 03:35:22;;;;;;;;;;;;;;;26.82;59.71;101215.41;5055845;28;19995;-80
2023/07/05 03:37:48;;;;;;;;;;;;;;;26.80;59.31;101214.53;5091866;28;19928;-80
2023/07/05 03:40:13;;;;;;;;;;;;;;;26.79;59.34;101210.94;5092660;28;20389;-80
2023/07/05 03:42:38;;;;;;;;;;;;;;;26.78;59.44;101206.50;5062285;28;19921;-80
2023/07/05 03:45:04;;;;;;;;;;;;;;;26.78;59.26;101203.81;5058564;28;19927;-80
2023/07/05 03:47:30;;;;;;;;;;;;;;;26.78;59.49;101216.34;5088547;28;20378;-81
2023/07/05 03:49:55;;;;;;;;;;;;;;;26.78;59.42;101217.22;5061145;28;19975;-80
2023/07/05 03:52:21;;;;;;;;;;;;;;;26.75;59.38;101203.81;5051276;28;19996;-80
2023/07/05 03:54:47;;;;;;;;;;;;;;;26.74;59.60;101203.84;5062138;28;19921;-81
2023/07/05 03:57:12;;;;;;;;;;;;;;;26.76;59.56;101205.63;5050137;28;19917;-80
2023/07/05 03:59:39;;;;;;;;;;;;;;;26.74;59.23;101195.81;5051744;28;20434;-80
2023/07/05 04:02:04;;;;;;;;;;;;;;;26.73;59.56;101202.97;5055911;28;19928;-80
2023/07/05 04:04:30;;;;;;;;;;;;;;;26.74;59.42;101204.72;5061148;28;20404;-80
2023/07/05 04:06:55;;;;;;;;;;;;;;;26.73;59.44;101197.59;5063138;28;19920;-80
2023/07/05 04:09:21;;;;;;;;;;;;;;;26.75;59.51;101205.63;5051929;28;19917;-81
2023/07/05 04:11:46;;;;;;;;;;;;;;;26.74;59.46;101198.50;5051142;28;19924;-80
2023/07/05 04:14:11;;;;;;;;;;;;;;;26.72;59.57;101201.16;5061931;28;20406;-79
2023/07/05 04:16:37;;;;;;;;;;;;;;;26.73;59.66;101196.69;5055440;28;19921;-79
2023/07/05 04:19:02;;;;;;;;;;;;;;;26.73;59.66;101204.72;5092025;28;20335;-80
2023/07/05 04:21:28;;;;;;;;;;;;;;;26.72;59.69;101195.81;5068766;28;19942;-79
2023/07/05 04:23:53;;;;;;;;;;;;;;;26.71;59.73;101191.38;5088635;28;19950;-80
2023/07/05 04:26:20;;;;;;;;;;;;;;;26.71;59.58;101187.78;5062975;28;20393;-80
2023/07/05 04:28:45;;;;;;;;;;;;;;;26.70;59.36;101189.56;5063045;28;19920;-81
2023/07/05 04:31:12;;;;;;;;;;;;;;;26.70;59.32;101186.00;5051226;28;19916;-80
2023/07/05 04:33:37;;;;;;;;;;;;;;;26.70;59.46;101186.88;5060791;28;20023;-78
2023/07/05 04:36:03;;;;;;;;;;;;;;;26.70;59.34;101180.66;5062434;28;20015;-78
2023/07/05 04:38:29;;;;;;;;;;;;;;;26.69;59.03;101182.44;5074660;28;19921;-79
2023/07/05 04:40:55;;;;;;;;;;;;;;;26.70;59.16;101186.00;5055957;28;19932;-78
2023/07/05 04:43:21;;;;;;;;;;;;;;;26.69;59.45;101181.53;5065441;28;20434;-79
2023/07/05 04:45:54;;;;;;;;;;;;;;;26.69;59.47;101181.53;5064232;28;19916;-79
2023/07/05 04:48:19;;;;;;;;;;;;;;;26.67;59.53;101169.94;5056985;28;19927;-78
2023/07/05 04:50:47;;;;;;;;;;;;;;;26.68;59.64;101175.28;5065727;28;19924;-78
2023/07/05 04:53:12;;;;;;;;;;;;;;;26.66;59.59;101170.84;5094506;28;19964;-81
2023/07/05 04:55:43;;;;;;;;;;;;;;;26.69;59.77;101177.09;5054288;28;19972;-79
2023/07/05 04:58:09;;;;;;;;;;;;;;;26.65;59.63;101172.66;5053942;28;19928;-79
2023/07/05 05:00:36;;;;;;;;;;;;;;;26.64;59.57;101173.53;5061053;28;19921;-80
2023/07/05 05:03:02;;;;;;;;;;;;;;;26.63;59.00;101171.75;5058708;28;19974;-79
2023/07/05 05:05:27;;;;;;;;;;;;;;;26.61;59.33;101168.19;5070209;28;19924;-79
2023/07/05 05:07:53;;;;;;;;;;;;;;;26.60;59.15;101166.41;5054303;28;20599;-79
2023/07/05 05:10:18;;;;;;;;;;;;;;;26.62;59.61;101174.44;5063104;28;20413;-78
2023/07/05 05:12:44;;;;;;;;;;;;;;;26.62;59.30;101169.97;5063216;28;20471;-81
2023/07/05 05:15:09;;;;;;;;;;;;;;;26.62;59.39;101171.75;5062402;28;19929;-79
2023/07/05 05:17:35;;;;;;;;;;;;;;;26.62;59.42;101171.75;5055150;28;20370;-80
2023/07/05 05:20:00;;;;;;;;;;;;;;;26.63;59.34;101173.53;5058139;28;20298;-78
2023/07/05 05:22:26;;;;;;;;;;;;;;;26.65;59.25;101174.41;5065569;28;20016;-80
2023/07/05 05:24:51;;;;;;;;;;;;;;;26.68;58.81;101171.72;5061356;28;19925;-81
2023/07/05 05:27:16;;;;;;;;;;;;;;;26.66;59.04;101182.44;5059272;28;20404;-78
2023/07/05 05:29:42;;;;;;;;;;;;;;;26.65;58.68;101174.41;5060961;28;20362;-81
2023/07/05 05:32:07;;;;;;;;;;;;;;;26.64;59.00;101178.88;5064350;28;20434;-79
2023/07/05 05:34:33;;;;;;;;;;;;;;;26.65;59.33;101175.31;5066618;28;20349;-80
2023/07/05 05:36:58;;;;;;;;;;;;;;;26.62;59.05;101175.31;5060685;28;20421;-80
2023/07/05 05:39:24;;;;;;;;;;;;;;;26.63;58.88;101173.53;5060879;28;20352;-79
2023/07/05 05:41:51;;;;;;;;;;;;;;;26.61;59.09;101176.25;5094561;28;19929;-80
2023/07/05 05:44:16;;;;;;;;;;;;;;;26.60;59.22;101177.13;5061044;28;19925;-78
2023/07/05 05:46:41;;;;;;;;;;;;;;;26.59;59.12;101181.59;5061643;28;19928;-78
2023/07/05 05:49:07;;;;;;;;;;;;;;;26.60;59.25;101177.13;5065056;28;19956;-80
2023/07/05 05:51:32;;;;;;;;;;;;;;;26.59;59.04;101183.38;5062235;28;19928;-80
2023/07/05 05:53:58;;;;;;;;;;;;;;;26.58;58.82;101182.47;5070491;28;20019;-80
2023/07/05 05:56:23;;;;;;;;;;;;;;;26.62;59.06;101174.44;5060953;28;19943;-80
2023/07/05 05:58:49;;;;;;;;;;;;;;;26.59;59.15;101184.28;5061067;28;19935;-80
2023/07/05 06:01:15;;;;;;;;;;;;;;;26.56;59.38;101180.69;5053688;28;19924;-80
2023/07/05 06:03:41;;;;;;;;;;;;;;;26.59;59.16;101172.69;5061897;28;19920;-78
2023/07/05 06:06:06;;;;;;;;;;;;;;;26.59;59.13;101178.03;5062244;28;20505;-79
2023/07/05 06:08:34;;;;;;;;;;;;;;;26.58;58.89;101179.81;5058279;28;19928;-79
2023/07/05 06:11:02;;;;;;;;;;;;;;;26.60;59.17;101191.41;5059703;28;20003;-79
2023/07/05 06:13:28;;;;;;;;;;;;;;;26.59;59.20;101186.06;5073206;28;19917;-80
2023/07/05 06:15:54;;;;;;;;;;;;;;;26.60;58.96;101179.81;5052828;28;19936;-79
2023/07/05 06:18:19;;;;;;;;;;;;;;;26.62;59.14;101188.72;5054128;28;19928;-78
2023/07/05 06:20:45;;;;;;;;;;;;;;;26.56;59.43;101183.34;5059340;28;19920;-79
2023/07/05 06:23:10;;;;;;;;;;;;;;;26.59;59.47;101180.72;5065445;28;19924;-78
2023/07/05 06:25:36;;;;;;;;;;;;;;;26.60;59.17;101177.13;5060507;28;20543;-81
2023/07/05 06:28:02;;;;;;;;;;;;;;;26.62;59.13;101180.69;5057702;28;20421;-78
2023/07/05 06:30:27;;;;;;;;;;;;;;;26.63;59.08;101174.44;5065407;28;19971;-80
2023/07/05 06:32:53;;;;;;;;;;;;;;;26.62;58.96;101171.75;5053744;28;19917;-80
2023/07/05 06:35:18;;;;;;;;;;;;;;;26.65;59.01;101169.97;5057097;28;19932;-81
2023/07/05 06:37:44;;;;;;;;;;;;;;;26.65;58.97;101167.28;5056877;28;19920;-81
2023/07/05 06:40:10;;;;;;;;;;;;;;;26.64;59.14;101168.16;5064065;28;20292;-80
2023/07/05 06:42:35;;;;;;;;;;;;;;;26.62;59.51;101163.72;5058476;28;20370;-82
2023/07/05 06:45:01;;;;;;;;;;;;;;;26.64;59.47;101157.44;5059629;28;19967;-81
2023/07/05 06:47:26;;;;;;;;;;;;;;;26.63;59.47;101163.72;5060491;28;20274;-81
2023/07/05 06:49:51;;;;;;;;;;;;;;;26.63;59.61;101166.41;5058348;28;19930;-80
2023/07/05 06:52:17;;;;;;;;;;;;;;;26.64;59.52;101164.59;5063804;28;19925;-81
2023/07/05 06:54:44;;;;;;;;;;;;;;;26.65;59.18;101169.97;5055599;28;20362;-81
2023/07/05 06:57:09;;;;;;;;;;;;;;;26.67;59.36;101165.50;5055395;28;20309;-82
2023/07/05 06:59:35;;;;;;;;;;;;;;;26.68;59.03;101163.69;5054065;28;19921;-82
2023/07/05 07:02:01;;;;;;;;;;;;;;;26.71;59.06;101155.63;5061578;28;19921;-81
2023/07/05 07:04:27;;;;;;;;;;;;;;;26.72;59.38;101160.09;5060080;28;19930;-80
2023/07/05 07:06:53;;;;;;;;;;;;;;;26.74;59.15;101153.81;5064356;28;20363;-80
2023/07/05 07:09:18;;;;;;;;;;;;;;;26.73;59.36;101165.47;5057465;28;20408;-81
2023/07/05 07:11:44;;;;;;;;;;;;;;;26.70;59.63;101159.22;5056641;28;19956;-80
2023/07/05 07:14:09;;;;;;;;;;;;;;;26.70;59.77;101159.22;5061996;28;20369;-81
2023/07/05 07:16:34;;;;;;;;;;;;;;;26.70;59.81;101160.09;5086607;28;19935;-84
2023/07/05 07:19:00;;;;;;;;;;;;;;;26.71;59.67;101160.97;5086574;28;19988;-81
2023/07/05 07:21:31;;;;;;;;;;;;;;;26.73;59.36;101157.41;5062841;28;20334;-81
2023/07/05 07:23:57;;;;;;;;;;;;;;;26.74;59.71;101156.50;5086249;28;19928;-80
2023/07/05 07:26:31;;;;;;;;;;;;;;;26.74;59.73;101161.84;5094497;27;19920;-84
2023/07/05 07:29:03;;;;;;;;;;;;;;;26.75;59.37;101160.94;5063395;28;19928;-84
2023/07/05 07:31:29;;;;;;;;;;;;;;;26.76;59.67;101168.09;5060741;28;19991;-81
2023/07/05 07:33:55;;;;;;;;;;;;;;;26.77;59.45;101166.31;5086686;28;19931;-82
2023/07/05 07:36:24;;;;;;;;;;;;;;;26.73;59.24;101167.22;5059754;28;19921;-81
2023/07/05 07:38:50;;;;;;;;;;;;;;;26.78;59.30;101160.94;5073007;28;20012;-82
2023/07/05 07:41:17;;;;;;;;;;;;;;;26.77;59.62;101163.63;5053255;28;19999;-82
2023/07/05 07:43:54;;;;;;;;;;;;;;;26.83;60.04;101162.69;5064733;28;19972;-93
2023/07/05 07:46:40;;;;;;;;;;;;;;;26.81;62.76;101162.69;5067326;28;19942;-92
2023/07/05 07:49:06;;;;;;;;;;;;;;;26.73;62.22;101165.47;5057754;28;19990;-81
2023/07/05 07:51:33;;;;;;;;;;;;;;;26.96;60.88;101165.25;5058627;28;19929;-81
2023/07/05 07:53:59;;;;;;;;;;;;;;;27.02;59.38;101167.03;5074430;28;20282;-82
2023/07/05 07:56:24;;;;;;;;;;;;;;;26.88;59.11;101172.50;5085832;28;19983;-82
2023/07/05 07:58:51;;;;;;;;;;;;;;;26.92;58.23;101163.50;5083215;28;19924;-81
2023/07/05 08:01:22;;;;;;;;;;;;;;;26.98;57.02;101162.59;5062535;28;19916;-82
2023/07/05 08:03:51;;;;;;;;;;;;;;;26.99;56.44;101164.38;5064584;28;19920;-81
2023/07/05 08:06:17;;;;;;;;;;;;;;;27.04;55.81;101165.22;5059077;28;19959;-82
2023/07/05 08:08:42;;;;;;;;;;;;;;;27.13;55.10;101158.88;5054453;28;19968;-81
2023/07/05 08:11:08;;;;;;;;;;;;;;;27.15;55.11;101157.97;5095512;28;20436;-80
2023/07/05 08:13:33;;;;;;;;;;;;;;;27.19;54.76;101170.44;5083044;28;20030;-81
2023/07/05 08:15:59;;;;;;;;;;;;;;;27.26;54.27;101165.94;5060441;28;19925;-83
2023/07/05 08:18:27;;;;;;;;;;;;;;;27.34;53.83;101166.78;5055700;28;20280;-82
2023/07/05 08:20:53;;;;;;;;;;;;;;;27.29;53.69;101165.94;5055042;28;19971;-83
2023/07/05 08:23:19;;;;;;;;;;;;;;;27.36;53.63;101164.97;5067163;28;20463;-81
2023/07/05 08:25:45;;;;;;;;;;;;;;;27.33;53.54;101166.81;5058535;28;19964;-84
2023/07/05 08:28:11;;;;;;;;;;;;;;;27.35;53.13;101157.84;5050543;28;20360;-83
2023/07/05 08:30:40;;;;;;;;;;;;;;;27.41;53.00;101152.44;5082021;28;20400;-81
2023/07/05 08:33:06;;;;;;;;;;;;;;;27.56;52.54;101169.28;5056154;28;20023;-82
2023/07/05 08:35:31;;;;;;;;;;;;;;;27.46;52.54;101156.84;5064386;28;20011;-83
2023/07/05 08:37:57;;;;;;;;;;;;;;;27.50;52.72;101167.53;5061790;28;19924;-82
2023/07/05 08:40:30;;;;;;;;;;;;;;;27.50;52.59;101161.28;5083218;28;19920;-83
2023/07/05 08:43:01;;;;;;;;;;;;;;;27.49;52.43;101164.88;5049389;28;19916;-83
2023/07/05 08:45:38;;;;;;;;;;;;;;;27.59;52.10;101161.19;5088315;28;19913;-84
2023/07/05 08:48:04;;;;;;;;;;;;;;;27.56;52.01;101162.13;5048161;28;19916;-83
2023/07/05 08:50:31;;;;;;;;;;;;;;;27.52;51.91;101164.84;5057669;28;19927;-83
2023/07/05 08:53:01;;;;;;;;;;;;;;;27.59;51.71;101156.72;5085379;28;19917;-82
2023/07/05 08:55:29;;;;;;;;;;;;;;;27.53;51.68;101164.81;5061265;28;20015;-83
2023/07/05 08:57:55;;;;;;;;;;;;;;;27.57;51.45;101166.56;5056677;28;19924;-82
2023/07/05 09:00:25;;;;;;;;;;;;;;;27.59;51.74;101167.44;5086208;28;20415;-83
2023/07/05 09:02:50;;;;;;;;;;;;;;;27.61;51.59;101164.75;5088275;28;19920;-83
2023/07/05 09:05:16;;;;;;;;;;;;;;;27.62;51.43;101163.81;5068458;28;19931;-83
2023/07/05 09:07:57;;;;;;;;;;;;;;;27.67;51.16;101163.81;5081770;28;19920;-83
2023/07/05 09:10:40;;;;;;;;;;;;;;;27.69;50.88;101165.56;5052034;28;20374;-83
2023/07/05 09:13:21;;;;;;;;;;;;;;;27.76;50.52;101167.25;5081235;28;19986;-83
2023/07/05 09:16:05;;;;;;;;;;;;;;;27.72;50.95;101164.63;5050263;28;20425;-83
2023/07/05 09:18:34;;;;;;;;;;;;;;;27.79;50.19;101167.25;5050747;28;19925;-82
2023/07/05 09:21:06;;;;;;;;;;;;;;;27.74;50.33;101169.06;5099169;28;19977;-83
2023/07/05 09:23:33;;;;;;;;;;;;;;;27.80;50.27;101169.00;5091300;28;19931;-82
2023/07/05 09:26:03;;;;;;;;;;;;;;;27.82;50.12;101164.50;5065836;28;19916;-82
2023/07/05 09:28:39;;;;;;;;;;;;;;;27.85;50.09;101168.06;5056414;28;19927;-82
2023/07/05 09:31:08;;;;;;;;;;;;;;;27.89;51.01;101180.59;5062917;28;19927;-83
2023/07/05 09:33:36;;;;;;;;;;;;;;;27.86;50.68;101173.47;5086077;28;19916;-82
2023/07/05 09:36:02;;;;;;;;;;;;;;;27.86;50.68;101173.47;5093254;28;20789;-82
2023/07/05 09:38:38;;;;;;;;;;;;;;;27.85;50.13;101171.63;5054712;28;19923;-82
2023/07/05 09:41:05;;;;;;;;;;;;;;;27.93;49.92;101163.53;5051777;28;19970;-84
2023/07/05 09:43:32;;;;;;;;;;;;;;;27.91;49.84;101171.59;5084863;28;20528;-81
2023/07/05 09:46:01;;;;;;;;;;;;;;;27.92;49.90;101169.81;5051406;28;19970;-83
2023/07/05 09:48:27;;;;;;;;;;;;;;;27.92;49.44;101161.75;5055559;28;20504;-83
2023/07/05 09:50:52;;;;;;;;;;;;;;;27.95;49.58;101165.28;5068108;28;19927;-82
2023/07/05 09:53:30;;;;;;;;;;;;;;;27.98;49.20;101153.63;5088539;28;19975;-83
2023/07/05 09:56:15;;;;;;;;;;;;;;;28.00;49.19;101160.78;5058409;28;19917;-83
2023/07/05 09:58:43;;;;;;;;;;;;;;;27.99;49.05;101158.97;5038532;28;19917;-82
2023/07/05 10:01:15;;;;;;;;;;;;;;;28.01;49.18;101162.53;5084321;28;20453;-83
2023/07/05 10:04:02;;;;;;;;;;;;;;;28.05;49.14;101167.91;5059811;28;19917;-83
2023/07/05 10:06:28;;;;;;;;;;;;;;;28.05;49.03;101165.22;5089348;28;19921;-81
2023/07/05 10:08:53;;;;;;;;;;;;;;;28.06;49.06;101157.09;5054624;28;19978;-82
2023/07/05 10:11:33;;;;;;;;;;;;;;;28.12;48.94;101158.84;5083081;28;20010;-84
2023/07/05 10:14:02;;;;;;;;;;;;;;;28.14;49.06;101154.34;5050322;28;19929;-83
2023/07/05 10:19:53;;;;;;;;;;;;;;;28.17;48.95;101149.84;5078035;28;19927;-83
2023/07/05 10:22:41;;;;;;;;;;;;;;;28.17;48.87;101141.78;5087488;28;19927;-83
2023/07/05 10:25:17;;;;;;;;;;;;;;;28.23;48.71;101141.66;5068598;28;19916;-83
2023/07/05 10:27:48;;;;;;;;;;;;;;;28.25;48.66;101133.59;5078245;28;19927;-83
2023/07/05 10:30:15;;;;;;;;;;;;;;;28.25;48.54;101138.97;5080246;28;19920;-82
2023/07/05 10:32:44;;;;;;;;;;;;;;;28.29;48.72;101126.41;5078153;28;20393;-82
2023/07/05 10:35:35;;;;;;;;;;;;;;;28.34;48.51;101136.19;5067071;28;20312;-82
2023/07/05 10:38:02;;;;;;;;;;;;;;;28.33;48.62;101137.06;5060600;28;20286;-82
2023/07/05 10:40:29;;;;;;;;;;;;;;;28.35;48.54;101124.50;5069339;28;19960;-84
2023/07/05 10:42:59;;;;;;;;;;;;;;;28.33;48.52;101129.00;5083298;28;20019;-84
2023/07/05 10:45:36;;;;;;;;;;;;;;;28.36;48.48;101131.69;5081060;28;19923;-85
2023/07/05 10:48:02;;;;;;;;;;;;;;;28.40;48.38;101137.88;5078225;28;19921;-85
2023/07/05 10:53:31;;;;;;;;;;;;;;;28.41;48.31;101127.13;5080428;28;20384;-85
2023/07/05 10:56:17;;;;;;;;;;;;;;;28.45;48.34;101136.03;5055312;28;19955;-85
2023/07/05 11:02:17;;;;;;;;;;;;;;;28.50;48.27;101133.31;5049917;28;19947;-84
2023/07/05 11:04:43;;;;;;;;;;;;;;;28.50;48.07;101123.44;5049872;28;19928;-83
2023/07/05 11:07:24;;;;;;;;;;;;;;;28.52;48.07;101129.69;5082578;28;19920;-84
2023/07/05 11:10:12;;;;;;;;;;;;;;;28.53;48.00;101127.88;5054244;28;20393;-83
2023/07/05 11:12:41;;;;;;;;;;;;;;;28.55;47.94;101129.63;5064153;28;19923;-82
2023/07/05 11:15:07;;;;;;;;;;;;;;;28.59;47.88;101130.47;5070379;28;20467;-82
2023/07/05 11:17:34;;;;;;;;;;;;;;;28.60;47.74;101126.88;5065722;28;19917;-84
2023/07/05 11:20:00;;;;;;;;;;;;;;;28.61;47.54;101121.47;5056035;28;20666;-82
2023/07/05 11:22:43;;;;;;;;;;;;;;;28.65;47.65;101122.31;5082966;28;19917;-82
2023/07/05 11:25:31;;;;;;;;;;;;;;;28.66;47.60;101118.72;5098683;27;19923;-84
2023/07/05 11:27:57;;;;;;;;;;;;;;;28.70;47.31;101120.47;5073265;28;19952;-84
2023/07/05 11:30:43;;;;;;;;;;;;;;;28.72;47.42;101115.91;5093750;27;19989;-84
2023/07/05 11:33:16;;;;;;;;;;;;;;;28.71;47.44;101113.28;5099612;28;19917;-83
2023/07/05 11:36:20;;;;;;;;;;;;;;;28.73;47.32;101112.34;5085915;28;19916;-83
2023/07/05 11:38:45;;;;;;;;;;;;;;;28.75;47.24;101117.69;5068652;28;20377;-84
2023/07/05 11:41:24;;;;;;;;;;;;;;;28.80;47.34;101118.50;5079723;28;19970;-83
2023/07/05 11:44:25;;;;;;;;;;;;;;;28.82;47.04;101117.56;5097719;28;19982;-84
2023/07/05 11:46:50;;;;;;;;;;;;;;;28.79;47.28;101117.63;5093651;28;20015;-83
2023/07/05 11:49:25;;;;;;;;;;;;;;;28.83;47.06;101122.03;5096226;28;20006;-83
2023/07/05 11:51:56;;;;;;;;;;;;;;;28.85;46.96;101111.28;5074564;28;19958;-84
2023/07/05 11:54:42;;;;;;;;;;;;;;;28.90;47.37;101116.56;5083001;28;19916;-81
2023/07/05 11:57:08;;;;;;;;;;;;;;;28.94;48.19;101108.41;5075152;28;19920;-82
2023/07/05 11:59:34;;;;;;;;;;;;;;;28.90;48.12;101111.19;5055422;28;19924;-81
2023/07/05 12:02:01;;;;;;;;;;;;;;;28.95;47.61;101102.09;5093710;28;19944;-82
2023/07/05 12:04:32;;;;;;;;;;;;;;;28.96;47.46;101098.53;5081042;28;19920;-83
2023/07/05 12:07:01;;;;;;;;;;;;;;;29.00;47.29;101092.19;5075281;28;19920;-81
2023/07/05 12:09:31;;;;;;;;;;;;;;;29.06;47.21;101091.16;5095024;28;19974;-81
2023/07/05 12:11:56;;;;;;;;;;;;;;;29.03;47.54;101089.44;5092933;28;19924;-82
2023/07/05 12:14:22;;;;;;;;;;;;;;;29.04;47.03;101084.94;5091996;28;19923;-81
2023/07/05 12:16:48;;;;;;;;;;;;;;;29.06;47.07;101093.84;5077324;28;20343;-82
2023/07/05 12:19:22;;;;;;;;;;;;;;;29.07;47.01;101092.09;5090227;28;20317;-82
2023/07/05 12:21:56;;;;;;;;;;;;;;;29.08;47.10;101086.66;5094309;28;19920;-82
2023/07/05 12:24:22;;;;;;;;;;;;;;;29.10;47.00;101078.59;5042650;28;19924;-83
2023/07/05 12:26:47;;;;;;;;;;;;;;;29.11;46.77;101081.28;5076059;28;19924;-83
2023/07/05 12:29:25;;;;;;;;;;;;;;;29.13;46.80;101079.44;5055231;28;19955;-82
2023/07/05 12:32:15;;;;;;;;;;;;;;;29.12;46.76;101076.78;5074877;28;19928;-82
2023/07/05 12:34:41;;;;;;;;;;;;;;;29.15;46.90;101074.03;5080427;28;20294;-83
2023/07/05 12:37:07;;;;;;;;;;;;;;;29.11;46.64;101073.19;5093066;28;19931;-82
2023/07/05 12:39:33;;;;;;;;;;;;;;;29.13;46.55;101068.69;5071054;28;19928;-82
2023/07/05 12:41:59;;;;;;;;;;;;;;;29.21;46.31;101060.44;5079306;28;20881;-82
2023/07/05 12:44:24;;;;;;;;;;;;;;;29.18;46.59;101057.84;5082018;28;19959;-82
2023/07/05 12:46:50;;;;;;;;;;;;;;;29.31;46.15;101045.03;5077266;28;19963;-82
2023/07/05 12:49:22;;;;;;;;;;;;;;;29.23;46.27;101043.41;5077925;28;20007;-83
2023/07/05 12:51:49;;;;;;;;;;;;;;;29.23;46.30;101047.88;5074757;28;19920;-83